createdAt,value
2019-06-07T00:03:29.708Z,87.30
2019-06-07T00:10:15.352Z,88.70
2019-06-07T00:16:57.819Z,88.50
2019-06-07T00:23:42.833Z,89.10
2019-06-07T00:30:44.456Z,90.40
2019-06-07T00:37:16.543Z,90.60
2019-06-07T00:44:01.631Z,90.90
2019-06-07T00:50:46.564Z,91.40
2019-06-07T00:57:31.431Z,91.40
2019-06-07T01:04:19.401Z,90.50
2019-06-07T01:11:03.054Z,90.30
2019-06-07T01:18:25.999Z,90.30
2019-06-07T01:24:34.488Z,90.50
2019-06-07T01:31:21.152Z,90.50
2019-06-07T01:38:05.910Z,91.10
2019-06-07T01:44:50.831Z,91.00
2019-06-07T01:51:35.698Z,91.20
2019-06-07T01:58:22.115Z,91.40
2019-06-07T02:05:07.836Z,91.30
2019-06-07T02:11:52.695Z,91.20
2019-06-07T02:18:55.702Z,90.70
2019-06-07T02:25:49.571Z,90.50
2019-06-07T02:32:10.710Z,90.10
2019-06-07T02:38:55.575Z,90.10
2019-06-07T02:45:43.588Z,89.80
2019-06-07T02:52:30.808Z,88.50
2019-06-07T02:59:13.632Z,88.40
2019-06-07T03:05:59.336Z,87.10
2019-06-07T03:12:47.022Z,85.00
2019-06-07T03:19:37.833Z,85.50
2019-06-07T03:26:23.634Z,86.20
2019-06-07T03:33:08.504Z,86.70
2019-06-07T03:39:53.372Z,86.50
2019-06-07T03:46:41.168Z,84.60
2019-06-07T03:53:24.806Z,83.10
2019-06-07T04:00:10.333Z,82.60
2019-06-07T04:06:55.235Z,82.10
2019-06-07T04:13:42.726Z,81.70
2019-06-07T04:20:26.738Z,81.00
2019-06-07T04:27:11.608Z,79.40
2019-06-07T04:33:56.471Z,77.90
2019-06-07T04:40:42.996Z,76.50
2019-06-07T04:47:29.660Z,76.90
2019-06-07T04:54:14.916Z,75.80
2019-06-07T05:01:03.337Z,74.60
2019-06-07T05:07:46.618Z,61.50
2019-06-07T05:14:33.207Z,48.00
2019-06-07T05:21:18.115Z,41.10
2019-06-07T05:28:02.970Z,35.70
2019-06-07T05:34:47.907Z,33.30
2019-06-07T05:41:34.167Z,32.50
2019-06-07T05:48:19.327Z,31.40
2019-06-07T05:55:04.734Z,30.20
2019-06-07T06:02:02.074Z,29.10
2019-06-07T06:08:37.743Z,28.20
2019-06-07T06:15:41.458Z,27.60
2019-06-07T06:22:09.442Z,27.70
2019-06-07T06:28:54.380Z,26.80
2019-06-07T06:35:39.869Z,26.90
2019-06-07T06:42:24.983Z,26.20
2019-06-07T06:49:09.971Z,27.30
2019-06-07T06:55:54.927Z,27.40
2019-06-07T07:03:27.033Z,26.80
2019-06-07T07:09:27.793Z,26.80
2019-06-07T07:16:13.498Z,27.50
2019-06-07T07:22:58.583Z,27.90
2019-06-07T07:29:47.384Z,26.50
2019-06-07T07:36:39.431Z,26.30
2019-06-07T07:43:17.752Z,25.40
2019-06-07T07:50:02.675Z,25.40
2019-06-07T07:56:49.098Z,25.50
2019-06-07T08:03:34.163Z,25.40
2019-06-07T08:10:19.570Z,25.20
2019-06-07T08:17:04.671Z,25.50
2019-06-07T08:23:51.591Z,25.50
2019-06-07T08:30:58.243Z,25.90
2019-06-07T08:37:23.731Z,26.60
2019-06-07T08:44:22.841Z,26.00
2019-06-07T08:51:00.851Z,27.10
2019-06-07T08:57:42.350Z,27.50
2019-06-07T09:04:27.466Z,27.70
2019-06-07T09:11:12.610Z,27.90
2019-06-07T09:18:35.462Z,27.50
2019-06-07T09:24:44.243Z,27.20
2019-06-07T09:31:51.300Z,27.80
2019-06-07T09:38:25.460Z,27.60
2019-06-07T09:45:06.537Z,27.90
2019-06-07T09:51:49.140Z,27.50
2019-06-07T09:58:52.837Z,29.90
2019-06-07T10:05:20.770Z,28.30
2019-06-07T10:12:06.501Z,28.50
2019-06-07T10:18:54.551Z,28.90
2019-06-07T10:25:40.255Z,28.20
2019-06-07T10:32:25.581Z,29.30
2019-06-07T10:39:11.354Z,29.00
2019-06-07T10:45:56.445Z,29.20
2019-06-07T10:52:41.302Z,29.50
2019-06-07T10:59:27.666Z,32.20
2019-06-07T11:06:14.219Z,35.20
2019-06-07T11:13:00.328Z,36.80
2019-06-07T11:19:45.247Z,39.80
2019-06-07T11:26:32.286Z,40.90
2019-06-07T11:33:18.880Z,41.80
2019-06-07T11:40:24.005Z,43.30
2019-06-07T11:46:53.142Z,44.00
2019-06-07T11:53:38.064Z,44.70
2019-06-07T12:00:23.390Z,45.70
2019-06-07T12:07:10.809Z,45.10
2019-06-07T12:13:55.950Z,43.70
2019-06-07T12:20:41.193Z,45.30
2019-06-07T12:27:27.055Z,44.20
2019-06-07T12:34:13.166Z,44.90
2019-06-07T12:40:58.329Z,44.60
2019-06-07T12:47:43.807Z,44.40
2019-06-07T12:54:28.960Z,44.10
2019-06-07T13:01:14.002Z,43.60
2019-06-07T13:08:00.784Z,42.40
2019-06-07T13:14:47.974Z,42.60
2019-06-07T13:21:32.911Z,42.80
2019-06-07T13:28:18.992Z,42.10
2019-06-07T13:35:07.554Z,42.00
2019-06-07T13:41:52.769Z,42.50
2019-06-07T13:48:38.936Z,42.50
2019-06-07T13:55:24.196Z,42.00
2019-06-07T14:02:09.130Z,41.00
2019-06-07T14:08:54.067Z,39.60
2019-06-07T14:15:39.006Z,39.80
2019-06-07T14:22:24.755Z,39.00
2019-06-07T14:29:09.914Z,38.30
2019-06-07T14:35:56.410Z,39.60
2019-06-07T14:42:41.673Z,37.10
2019-06-07T14:49:28.120Z,37.60
2019-06-07T14:56:13.277Z,37.30
2019-06-07T15:02:58.260Z,36.30
2019-06-07T15:09:43.448Z,35.10
2019-06-07T15:16:30.148Z,36.00
2019-06-07T15:23:16.079Z,35.30
2019-06-07T15:30:09.564Z,34.80
2019-06-07T15:36:47.876Z,35.00
2019-06-07T15:43:33.286Z,34.80
2019-06-07T15:50:18.484Z,34.50
2019-06-07T15:57:03.434Z,34.70
2019-06-07T16:03:48.376Z,34.20
2019-06-07T16:10:34.589Z,34.60
2019-06-07T16:17:19.638Z,34.30
2019-06-07T16:24:05.100Z,34.70
2019-06-07T16:30:50.140Z,34.40
2019-06-07T16:37:36.258Z,34.60
2019-06-07T16:44:22.708Z,39.60
2019-06-07T16:51:08.224Z,44.20
2019-06-07T16:57:53.272Z,47.40
2019-06-07T17:04:39.445Z,49.50
2019-06-07T17:11:25.089Z,49.30
2019-06-07T17:18:10.046Z,44.00
2019-06-07T17:24:54.979Z,42.20
2019-06-07T17:31:39.909Z,44.00
2019-06-07T17:38:24.952Z,46.90
2019-06-07T17:45:11.043Z,47.90
2019-06-07T17:51:58.442Z,48.50
2019-06-07T17:58:44.369Z,49.60
2019-06-07T18:05:30.421Z,50.60
2019-06-07T18:12:16.119Z,51.00
2019-06-07T18:19:01.303Z,51.00
2019-06-07T18:25:46.552Z,49.50
2019-06-07T18:32:31.423Z,48.60
2019-06-07T18:39:16.390Z,48.50
2019-06-07T18:46:01.398Z,47.00
2019-06-07T18:52:46.792Z,47.40
2019-06-07T18:59:31.915Z,46.90
2019-06-07T19:06:17.257Z,46.40
2019-06-07T19:13:02.562Z,46.70
2019-06-07T19:19:48.180Z,46.80
2019-06-07T19:26:34.253Z,46.60
2019-06-07T19:33:19.219Z,46.70
2019-06-07T19:40:05.712Z,45.80
2019-06-07T19:46:50.567Z,45.50
2019-06-07T19:53:35.431Z,45.50
2019-06-07T20:00:20.832Z,45.80
2019-06-07T20:07:05.951Z,47.10
2019-06-07T20:13:50.836Z,46.50
2019-06-07T20:20:35.701Z,47.90
2019-06-07T20:27:20.551Z,49.50
2019-06-07T20:34:05.802Z,48.60
2019-06-07T20:40:50.910Z,48.50
2019-06-07T20:47:35.912Z,48.90
2019-06-07T20:54:21.834Z,49.10
2019-06-07T21:01:07.196Z,50.50
2019-06-07T21:07:52.334Z,50.80
2019-06-07T21:14:37.214Z,51.60
2019-06-07T21:21:22.135Z,51.60
2019-06-07T21:28:07.583Z,50.50
2019-06-07T21:34:52.899Z,50.90
2019-06-07T21:41:37.831Z,51.30
2019-06-07T21:48:23.907Z,51.40
2019-06-07T21:55:09.704Z,52.20
2019-06-07T22:01:54.773Z,57.90
2019-06-07T22:08:39.779Z,60.40
2019-06-07T22:15:34.062Z,62.00
2019-06-07T22:22:12.963Z,63.70
2019-06-07T22:28:58.352Z,63.50
2019-06-07T22:35:43.506Z,64.90
2019-06-07T22:42:28.686Z,66.00
2019-06-07T22:49:15.374Z,66.60
2019-06-07T22:56:02.279Z,66.80
2019-06-07T23:02:47.403Z,65.10
2019-06-07T23:09:32.254Z,65.20
2019-06-07T23:16:17.781Z,65.60
2019-06-07T23:23:02.886Z,65.90
2019-06-07T23:29:47.879Z,67.50
2019-06-07T23:36:33.722Z,66.90
2019-06-07T23:43:19.598Z,67.60
2019-06-07T23:50:06.153Z,67.70
2019-06-07T23:56:52.519Z,67.40
